Anacortes, Washington
Current Conditions -  °F | °C
As of 12:35 PM on Tuesday 25 Nov 2014 (Local Time) from KBVS Reporting Station
Overcast Overcast  
Wind Chill:   Ceiling: 2000
Heat Index:   Visibility: 1.7mi
Dew Point:   Wind: 5mph
Humidity: 100%   Direction: 350°N
Pressure: 30.22"   Gusts: NA
Location:  48.51°N, 122.61°W
Report Text: KBVS 252035Z AUTO 35004KT 1 3/4SM SCT004 SCT015 OVC020 08/08 A3022 RMK A01 P001
Loading
Personal Weather Stations






























Interactive Weather Map New forecast layout! Learn more

10-Day Weather Forecast

Advertisements
Track Severe Weather on mobile